sensor_id;sensor_type;location;lat;lon;timestamp;P1;durP1;ratioP1;P2;durP2;ratioP2
35243;SDS011;37916;52.160;21.066;2023-07-28T00:00:32;6.45;;;3.88;;
35243;SDS011;37916;52.160;21.066;2023-07-28T00:10:33;5.88;;;4.25;;
35243;SDS011;37916;52.160;21.066;2023-07-28T00:20:34;6.75;;;4.00;;
35243;SDS011;37916;52.160;21.066;2023-07-28T00:30:35;7.50;;;3.70;;
35243;SDS011;37916;52.160;21.066;2023-07-28T00:40:36;8.02;;;3.83;;
35243;SDS011;37916;52.160;21.066;2023-07-28T00:50:38;6.53;;;3.53;;
35243;SDS011;37916;52.160;21.066;2023-07-28T01:00:39;5.68;;;4.07;;
35243;SDS011;37916;52.160;21.066;2023-07-28T01:10:40;10.20;;;4.65;;
35243;SDS011;37916;52.160;21.066;2023-07-28T01:20:41;7.00;;;4.30;;
35243;SDS011;37916;52.160;21.066;2023-07-28T01:30:45;8.27;;;4.82;;
35243;SDS011;37916;52.160;21.066;2023-07-28T01:40:46;6.90;;;4.68;;
35243;SDS011;37916;52.160;21.066;2023-07-28T01:50:47;7.40;;;4.65;;
35243;SDS011;37916;52.160;21.066;2023-07-28T02:00:48;7.70;;;4.53;;
35243;SDS011;37916;52.160;21.066;2023-07-28T02:10:49;7.32;;;4.75;;
35243;SDS011;37916;52.160;21.066;2023-07-28T02:20:50;6.78;;;4.30;;
35243;SDS011;37916;52.160;21.066;2023-07-28T02:30:51;7.50;;;4.43;;
35243;SDS011;37916;52.160;21.066;2023-07-28T02:40:52;6.53;;;4.32;;
35243;SDS011;37916;52.160;21.066;2023-07-28T02:50:53;5.80;;;4.45;;
35243;SDS011;37916;52.160;21.066;2023-07-28T03:00:54;8.05;;;4.72;;
35243;SDS011;37916;52.160;21.066;2023-07-28T03:10:56;5.80;;;3.85;;
35243;SDS011;37916;52.160;21.066;2023-07-28T03:20:57;5.82;;;4.03;;
35243;SDS011;37916;52.160;21.066;2023-07-28T03:30:58;5.80;;;3.97;;
35243;SDS011;37916;52.160;21.066;2023-07-28T03:40:59;6.72;;;4.10;;
35243;SDS011;37916;52.160;21.066;2023-07-28T03:51:00;6.28;;;3.92;;
35243;SDS011;37916;52.160;21.066;2023-07-28T04:01:01;7.25;;;4.68;;
35243;SDS011;37916;52.160;21.066;2023-07-28T04:11:03;8.18;;;5.05;;
35243;SDS011;37916;52.160;21.066;2023-07-28T04:21:03;6.95;;;4.75;;
35243;SDS011;37916;52.160;21.066;2023-07-28T04:31:05;7.90;;;4.68;;
35243;SDS011;37916;52.160;21.066;2023-07-28T04:41:06;6.32;;;4.07;;
35243;SDS011;37916;52.160;21.066;2023-07-28T04:51:07;5.22;;;3.85;;
35243;SDS011;37916;52.160;21.066;2023-07-28T05:01:08;6.50;;;3.95;;
35243;SDS011;37916;52.160;21.066;2023-07-28T05:11:09;4.90;;;3.67;;
35243;SDS011;37916;52.160;21.066;2023-07-28T05:21:10;5.13;;;2.95;;
35243;SDS011;37916;52.160;21.066;2023-07-28T05:31:11;5.45;;;3.50;;
35243;SDS011;37916;52.160;21.066;2023-07-28T05:41:15;7.27;;;3.27;;
35243;SDS011;37916;52.160;21.066;2023-07-28T05:51:16;4.50;;;2.85;;
35243;SDS011;37916;52.160;21.066;2023-07-28T06:01:17;5.13;;;2.65;;
35243;SDS011;37916;52.160;21.066;2023-07-28T06:11:19;6.43;;;3.25;;
35243;SDS011;37916;52.160;21.066;2023-07-28T06:21:20;4.50;;;2.90;;
35243;SDS011;37916;52.160;21.066;2023-07-28T06:31:21;3.78;;;2.60;;
35243;SDS011;37916;52.160;21.066;2023-07-28T06:41:22;5.38;;;2.60;;
35243;SDS011;37916;52.160;21.066;2023-07-28T06:51:23;6.72;;;2.40;;
35243;SDS011;37916;52.160;21.066;2023-07-28T07:01:24;6.35;;;2.50;;
35243;SDS011;37916;52.160;21.066;2023-07-28T07:11:26;5.57;;;2.97;;
35243;SDS011;37916;52.160;21.066;2023-07-28T07:21:27;3.65;;;2.75;;
35243;SDS011;37916;52.160;21.066;2023-07-28T07:31:28;7.00;;;3.22;;
35243;SDS011;37916;52.160;21.066;2023-07-28T07:41:29;7.38;;;3.28;;
35243;SDS011;37916;52.160;21.066;2023-07-28T07:51:30;5.97;;;3.78;;
35243;SDS011;37916;52.160;21.066;2023-07-28T08:01:34;7.00;;;3.33;;
35243;SDS011;37916;52.160;21.066;2023-07-28T08:11:35;5.05;;;3.55;;
35243;SDS011;37916;52.160;21.066;2023-07-28T08:21:36;5.72;;;3.15;;
35243;SDS011;37916;52.160;21.066;2023-07-28T08:31:37;5.53;;;3.65;;
35243;SDS011;37916;52.160;21.066;2023-07-28T08:41:38;5.13;;;3.28;;
35243;SDS011;37916;52.160;21.066;2023-07-28T08:51:48;7.05;;;3.13;;
35243;SDS011;37916;52.160;21.066;2023-07-28T09:01:56;3.83;;;3.05;;
35243;SDS011;37916;52.160;21.066;2023-07-28T09:11:58;7.63;;;3.30;;
35243;SDS011;37916;52.160;21.066;2023-07-28T09:22:01;3.85;;;3.08;;
35243;SDS011;37916;52.160;21.066;2023-07-28T09:32:03;6.05;;;3.08;;
35243;SDS011;37916;52.160;21.066;2023-07-28T09:42:04;4.65;;;3.50;;
35243;SDS011;37916;52.160;21.066;2023-07-28T09:52:09;4.68;;;3.30;;
35243;SDS011;37916;52.160;21.066;2023-07-28T10:02:10;6.80;;;3.42;;
35243;SDS011;37916;52.160;21.066;2023-07-28T10:12:24;5.50;;;3.25;;
35243;SDS011;37916;52.160;21.066;2023-07-28T10:22:28;6.13;;;3.20;;
35243;SDS011;37916;52.160;21.066;2023-07-28T10:32:36;6.15;;;3.58;;
35243;SDS011;37916;52.160;21.066;2023-07-28T10:42:39;6.22;;;3.72;;
35243;SDS011;37916;52.160;21.066;2023-07-28T10:52:40;4.70;;;3.30;;
35243;SDS011;37916;52.160;21.066;2023-07-28T11:02:41;5.00;;;3.35;;
35243;SDS011;37916;52.160;21.066;2023-07-28T11:12:43;7.45;;;3.25;;
35243;SDS011;37916;52.160;21.066;2023-07-28T11:22:45;5.63;;;3.58;;
35243;SDS011;37916;52.160;21.066;2023-07-28T11:32:47;3.67;;;2.75;;
35243;SDS011;37916;52.160;21.066;2023-07-28T11:42:50;4.88;;;2.55;;
35243;SDS011;37916;52.160;21.066;2023-07-28T11:52:51;3.83;;;2.30;;
35243;SDS011;37916;52.160;21.066;2023-07-28T12:03:02;2.58;;;1.95;;
35243;SDS011;37916;52.160;21.066;2023-07-28T12:13:04;2.90;;;1.20;;
35243;SDS011;37916;52.160;21.066;2023-07-28T12:23:06;10.23;;;2.20;;
35243;SDS011;37916;52.160;21.066;2023-07-28T12:33:07;1.90;;;1.15;;
35243;SDS011;37916;52.160;21.066;2023-07-28T12:43:08;3.50;;;1.50;;
35243;SDS011;37916;52.160;21.066;2023-07-28T12:53:09;2.00;;;1.27;;
35243;SDS011;37916;52.160;21.066;2023-07-28T13:03:10;2.53;;;1.55;;
35243;SDS011;37916;52.160;21.066;2023-07-28T13:13:12;0.97;;;0.60;;
35243;SDS011;37916;52.160;21.066;2023-07-28T13:23:13;0.82;;;0.70;;
35243;SDS011;37916;52.160;21.066;2023-07-28T13:33:14;2.13;;;0.88;;
35243;SDS011;37916;52.160;21.066;2023-07-28T13:43:15;1.70;;;1.00;;
35243;SDS011;37916;52.160;21.066;2023-07-28T13:53:17;1.35;;;0.70;;
35243;SDS011;37916;52.160;21.066;2023-07-28T14:03:18;1.33;;;0.65;;
35243;SDS011;37916;52.160;21.066;2023-07-28T14:13:19;2.75;;;0.80;;
35243;SDS011;37916;52.160;21.066;2023-07-28T14:23:20;1.75;;;0.90;;
35243;SDS011;37916;52.160;21.066;2023-07-28T14:43:23;1.50;;;0.90;;
35243;SDS011;37916;52.160;21.066;2023-07-28T14:53:38;2.15;;;0.90;;
35243;SDS011;37916;52.160;21.066;2023-07-28T15:03:40;2.95;;;0.90;;
35243;SDS011;37916;52.160;21.066;2023-07-28T15:13:41;1.00;;;0.90;;
35243;SDS011;37916;52.160;21.066;2023-07-28T15:23:42;1.48;;;1.05;;
35243;SDS011;37916;52.160;21.066;2023-07-28T15:33:43;1.35;;;0.95;;
35243;SDS011;37916;52.160;21.066;2023-07-28T15:43:44;2.55;;;1.58;;
35243;SDS011;37916;52.160;21.066;2023-07-28T15:53:45;4.55;;;2.45;;
35243;SDS011;37916;52.160;21.066;2023-07-28T16:03:47;1.90;;;1.70;;
35243;SDS011;37916;52.160;21.066;2023-07-28T16:13:48;2.40;;;1.50;;
35243;SDS011;37916;52.160;21.066;2023-07-28T16:23:49;2.90;;;2.22;;
35243;SDS011;37916;52.160;21.066;2023-07-28T16:33:50;3.58;;;1.60;;
35243;SDS011;37916;52.160;21.066;2023-07-28T16:43:51;2.13;;;1.55;;
35243;SDS011;37916;52.160;21.066;2023-07-28T16:53:52;1.63;;;0.90;;
35243;SDS011;37916;52.160;21.066;2023-07-28T17:03:53;1.45;;;0.90;;
35243;SDS011;37916;52.160;21.066;2023-07-28T17:13:55;2.42;;;0.80;;
35243;SDS011;37916;52.160;21.066;2023-07-28T17:23:56;4.78;;;2.00;;
35243;SDS011;37916;52.160;21.066;2023-07-28T17:34:02;2.97;;;0.98;;
35243;SDS011;37916;52.160;21.066;2023-07-28T17:44:03;3.22;;;1.50;;
35243;SDS011;37916;52.160;21.066;2023-07-28T17:54:04;4.65;;;2.35;;
35243;SDS011;37916;52.160;21.066;2023-07-28T18:04:05;2.67;;;1.35;;
35243;SDS011;37916;52.160;21.066;2023-07-28T18:14:06;2.20;;;1.20;;
35243;SDS011;37916;52.160;21.066;2023-07-28T18:24:07;3.38;;;1.70;;
35243;SDS011;37916;52.160;21.066;2023-07-28T18:34:09;3.20;;;1.60;;
35243;SDS011;37916;52.160;21.066;2023-07-28T18:44:10;2.70;;;1.95;;
35243;SDS011;37916;52.160;21.066;2023-07-28T18:54:11;3.30;;;2.25;;
35243;SDS011;37916;52.160;21.066;2023-07-28T19:04:12;6.32;;;3.20;;
35243;SDS011;37916;52.160;21.066;2023-07-28T19:14:13;2.95;;;2.33;;
35243;SDS011;37916;52.160;21.066;2023-07-28T19:24:14;3.40;;;2.70;;
35243;SDS011;37916;52.160;21.066;2023-07-28T19:34:15;5.43;;;3.00;;
35243;SDS011;37916;52.160;21.066;2023-07-28T19:44:16;5.30;;;3.15;;
35243;SDS011;37916;52.160;21.066;2023-07-28T19:54:17;4.60;;;3.25;;
35243;SDS011;37916;52.160;21.066;2023-07-28T20:04:18;7.00;;;3.17;;
35243;SDS011;37916;52.160;21.066;2023-07-28T20:14:20;5.85;;;3.58;;
35243;SDS011;37916;52.160;21.066;2023-07-28T20:24:24;5.03;;;3.50;;
35243;SDS011;37916;52.160;21.066;2023-07-28T20:34:25;7.53;;;4.47;;
35243;SDS011;37916;52.160;21.066;2023-07-28T20:44:26;5.35;;;4.13;;
35243;SDS011;37916;52.160;21.066;2023-07-28T20:54:27;5.10;;;4.57;;
35243;SDS011;37916;52.160;21.066;2023-07-28T21:04:28;5.13;;;3.83;;
35243;SDS011;37916;52.160;21.066;2023-07-28T21:14:30;5.35;;;4.63;;
35243;SDS011;37916;52.160;21.066;2023-07-28T21:24:31;6.45;;;4.72;;
35243;SDS011;37916;52.160;21.066;2023-07-28T21:34:32;5.43;;;4.03;;
35243;SDS011;37916;52.160;21.066;2023-07-28T21:44:33;5.50;;;4.35;;
35243;SDS011;37916;52.160;21.066;2023-07-28T21:54:34;8.45;;;5.03;;
35243;SDS011;37916;52.160;21.066;2023-07-28T22:04:35;5.47;;;4.72;;
35243;SDS011;37916;52.160;21.066;2023-07-28T22:14:36;6.15;;;4.97;;
35243;SDS011;37916;52.160;21.066;2023-07-28T22:24:37;7.32;;;4.88;;
35243;SDS011;37916;52.160;21.066;2023-07-28T22:34:38;7.80;;;5.00;;
35243;SDS011;37916;52.160;21.066;2023-07-28T22:44:39;6.05;;;5.25;;
35243;SDS011;37916;52.160;21.066;2023-07-28T22:54:40;8.25;;;5.10;;
35243;SDS011;37916;52.160;21.066;2023-07-28T23:04:41;7.85;;;6.15;;
35243;SDS011;37916;52.160;21.066;2023-07-28T23:14:43;7.93;;;5.85;;
35243;SDS011;37916;52.160;21.066;2023-07-28T23:24:47;8.35;;;6.28;;
35243;SDS011;37916;52.160;21.066;2023-07-28T23:34:51;9.80;;;6.43;;
35243;SDS011;37916;52.160;21.066;2023-07-28T23:44:54;8.20;;;6.38;;
35243;SDS011;37916;52.160;21.066;2023-07-28T23:54:55;8.32;;;6.35;;
